createdAt,value
2017-08-03T00:00:02.884Z,15.6
2017-08-03T00:15:03.439Z,15.6
2017-08-03T00:30:03.183Z,15.5
2017-08-03T00:45:02.749Z,15.5
2017-08-03T01:00:03.439Z,15.5
2017-08-03T01:15:03.051Z,15.5
2017-08-03T01:30:02.750Z,15.5
2017-08-03T01:45:03.389Z,15.5
2017-08-03T02:00:02.956Z,15.4
2017-08-03T02:15:02.521Z,15.5
2017-08-03T02:30:03.187Z,15.4
2017-08-03T02:45:02.810Z,15.5
2017-08-03T03:00:03.399Z,15.5
2017-08-03T03:15:02.944Z,15.5
2017-08-03T03:30:02.600Z,15.5
2017-08-03T03:45:03.399Z,15.5
2017-08-03T04:00:02.994Z,15.5
2017-08-03T04:15:02.597Z,15.5
2017-08-03T04:30:03.206Z,15.6
2017-08-03T04:45:02.807Z,15.6
2017-08-03T05:00:03.500Z,15.6
2017-08-03T05:15:03.100Z,15.6
2017-08-03T05:30:02.766Z,15.7
2017-08-03T05:45:03.386Z,15.7
2017-08-03T06:00:02.954Z,15.8
2017-08-03T06:15:02.584Z,15.8
2017-08-03T06:30:03.458Z,15.8
2017-08-03T06:45:03.026Z,15.9
2017-08-03T07:00:02.603Z,15.9
2017-08-03T07:15:03.178Z,16
2017-08-03T07:30:02.844Z,16
2017-08-03T07:45:03.408Z,16.1
2017-08-03T08:00:03.093Z,16.1
2017-08-03T08:15:02.703Z,16.2
2017-08-03T08:30:03.421Z,16.2
2017-08-03T08:45:03.014Z,16.2
2017-08-03T09:00:02.599Z,16.3
2017-08-03T09:15:03.189Z,16.4
2017-08-03T09:30:03.192Z,16.5
2017-08-03T09:45:02.798Z,16.6
2017-08-03T10:00:03.387Z,16.6
2017-08-03T10:15:03.350Z,16.7
2017-08-03T10:30:02.972Z,16.8
2017-08-03T10:45:02.604Z,16.9
2017-08-03T11:00:03.186Z,17
2017-08-03T11:15:02.762Z,17.1
2017-08-03T11:30:03.415Z,17.1
2017-08-03T11:45:02.986Z,17.1
2017-08-03T12:00:02.607Z,17.1
2017-08-03T12:15:03.205Z,17.2
2017-08-03T12:30:02.974Z,17.2
2017-08-03T12:45:02.593Z,17.3
2017-08-03T13:00:03.254Z,17.4
2017-08-03T13:15:03.107Z,17.4
2017-08-03T13:30:02.790Z,17.4
2017-08-03T13:45:03.390Z,17.5
2017-08-03T14:00:02.990Z,17.5
2017-08-03T14:15:02.589Z,17.5
2017-08-03T14:30:03.580Z,17.5
2017-08-03T14:45:03.144Z,17.5
2017-08-03T15:00:02.936Z,17.4
2017-08-03T15:15:02.760Z,17.4
2017-08-03T15:30:03.412Z,17.4
2017-08-03T15:45:02.953Z,17.4
2017-08-03T16:00:02.607Z,17.3
2017-08-03T16:15:03.200Z,17.3
2017-08-03T16:30:02.887Z,17.2
2017-08-03T16:45:04.301Z,17.2
2017-08-03T17:00:02.904Z,17.2
2017-08-03T17:15:03.448Z,17.1
2017-08-03T17:30:03.063Z,17.1
2017-08-03T17:45:02.704Z,17.1
2017-08-03T18:00:03.306Z,17
2017-08-03T18:15:02.883Z,17
2017-08-03T18:30:02.565Z,16.9
2017-08-03T18:45:03.211Z,16.9
2017-08-03T19:00:02.804Z,16.9
2017-08-03T19:15:03.403Z,16.8
2017-08-03T19:30:03.091Z,16.8
2017-08-03T19:45:02.686Z,16.8
2017-08-03T20:00:03.295Z,16.8
2017-08-03T20:15:02.905Z,16.7
2017-08-03T20:30:02.582Z,16.7
2017-08-03T20:45:03.190Z,16.6
2017-08-03T21:00:02.787Z,16.6
2017-08-03T21:15:03.384Z,16.6
2017-08-03T21:30:03.013Z,16.6
2017-08-03T21:45:02.567Z,16.5
2017-08-03T22:00:03.168Z,16.5
2017-08-03T22:15:02.762Z,16.4
2017-08-03T22:30:03.438Z,16.4
2017-08-03T22:45:03.022Z,16.4
2017-08-03T23:00:02.712Z,16.4
2017-08-03T23:15:03.272Z,16.4
2017-08-03T23:30:03.002Z,16.4
2017-08-03T23:45:02.572Z,16.3
